MSC Giovanna — 3FRB9 — position and weather

sailwx.info

Track history (hours):
 
Tides and Currents Weather Stations Pressure Air Temp Water Temp Dewpoint Dewpoint Depression Visibility Wind Speed Wind Dir Waves Ship Positions

MSC Giovanna

Last reported at 2017-Apr-25 05:26 UTC. Time now 2017-Apr-28 23:34 UTC.
Position N 37°24' E 025°55'.

Length 178 m; draft 9.3 m.

Type: Ship. MMSI: 357702000.

Date/timePositionNaut miles runAvg speedWind from/ knotsBaromVisibWave heightAir tempDewpointWater temp
2017-Apr-25 05:26N 37°24' E 025°55'614.7
2017-Apr-25 05:01N 37°30' E 025°53'714.6
2017-Apr-25 04:31N 37°38' E 025°52'223 9.9
2017-Apr-24 05:59N 40°26' E 029°00'4 0.4
2017-Apr-23 20:47N 40°26' E 029°05'2 1.0
2017-Apr-23 18:38N 40°28' E 029°03'0 0.0
2017-Apr-23 18:26N 40°28' E 029°03'0 0.0
2017-Apr-23 15:24N 40°28' E 029°04'0 0.0
2017-Apr-23 14:30N 40°28' E 029°04'0 0.0
2017-Apr-23 07:49N 40°28' E 029°03'2 6.2
2017-Apr-23 07:29N 40°27' E 029°01'13 5.8
2017-Apr-23 05:12N 40°38' E 028°53'315.5
2017-Apr-23 05:00N 40°40' E 028°56'714.7
2017-Apr-23 04:31N 40°42' E 029°05'815.1
2017-Apr-23 04:01N 40°44' E 029°15'611.4
2017-Apr-23 03:29N 40°44' E 029°23'510.0
2017-Apr-23 03:00N 40°45' E 029°29'2 4.3
2017-Apr-23 02:28N 40°46' E 029°32'0 0.0
2017-Apr-23 01:59N 40°46' E 029°32'0 0.0
2017-Apr-23 01:14N 40°46' E 029°32'0 0.0
2017-Apr-23 01:00N 40°46' E 029°32'0 0.0
2017-Apr-23 00:18N 40°46' E 029°32'0 0.0
2017-Apr-22 23:50N 40°46' E 029°32'0 0.0
2017-Apr-22 23:18N 40°46' E 029°32'0 0.0
2017-Apr-22 23:00N 40°46' E 029°32'0 0.0
2017-Apr-22 22:27N 40°46' E 029°32'0 0.0
2017-Apr-22 21:58N 40°46' E 029°32'0 0.0
2017-Apr-22 21:29N 40°46' E 029°32'0 0.0
2017-Apr-22 20:55N 40°46' E 029°32'0 0.0
2017-Apr-22 20:25N 40°46' E 029°32'0 0.0
2017-Apr-22 19:58N 40°46' E 029°32'0 0.0
2017-Apr-22 19:21N 40°46' E 029°32'0 0.0
2017-Apr-22 18:58N 40°46' E 029°32'0 0.0
2017-Apr-22 18:29N 40°46' E 029°32'0 0.0
2017-Apr-22 17:59N 40°46' E 029°32'0 0.0
2017-Apr-22 17:27N 40°46' E 029°32'1 1.5
2017-Apr-22 17:00N 40°45' E 029°31'4 8.9
2017-Apr-22 16:30N 40°44' E 029°26'4 8.9
2017-Apr-22 16:00N 40°44' E 029°20'612.9
2017-Apr-22 15:30N 40°44' E 029°12'713.4
2017-Apr-22 14:59N 40°45' E 029°02'712.8
2017-Apr-22 14:28N 40°46' E 028°54'  
2017-Apr-19 07:17N 40°57' E 028°56'310.7
2017-Apr-19 07:00N 40°59' E 028°59'  
Track history (hours):
 
Tides and Currents Weather Stations Pressure Air Temp Water Temp Dewpoint Dewpoint Depression Visibility Wind Speed Wind Dir Waves Ship Positions

MSC Giovanna

Last reported at 2017-Apr-25 05:26 UTC. Time now 2017-Apr-28 23:34 UTC.
Position N 37°24' E 025°55'.

Length 178 m; draft 9.3 m.

Type: Ship. MMSI: 357702000.

Date/timePositionNaut miles runAvg speedWind from/ knotsBaromVisibWave heightAir tempDewpointWater temp
2017-Apr-25 05:26N 37°24' E 025°55'614.7
2017-Apr-25 05:01N 37°30' E 025°53'714.6
2017-Apr-25 04:31N 37°38' E 025°52'223 9.9
2017-Apr-24 05:59N 40°26' E 029°00'4 0.4
2017-Apr-23 20:47N 40°26' E 029°05'2 1.0
2017-Apr-23 18:38N 40°28' E 029°03'0 0.0
2017-Apr-23 18:26N 40°28' E 029°03'0 0.0
2017-Apr-23 15:24N 40°28' E 029°04'0 0.0
2017-Apr-23 14:30N 40°28' E 029°04'0 0.0
2017-Apr-23 07:49N 40°28' E 029°03'2 6.2
2017-Apr-23 07:29N 40°27' E 029°01'13 5.8
2017-Apr-23 05:12N 40°38' E 028°53'315.5
2017-Apr-23 05:00N 40°40' E 028°56'714.7
2017-Apr-23 04:31N 40°42' E 029°05'815.1
2017-Apr-23 04:01N 40°44' E 029°15'611.4
2017-Apr-23 03:29N 40°44' E 029°23'510.0
2017-Apr-23 03:00N 40°45' E 029°29'2 4.3
2017-Apr-23 02:28N 40°46' E 029°32'0 0.0
2017-Apr-23 01:59N 40°46' E 029°32'0 0.0
2017-Apr-23 01:14N 40°46' E 029°32'0 0.0
2017-Apr-23 01:00N 40°46' E 029°32'0 0.0
2017-Apr-23 00:18N 40°46' E 029°32'0 0.0
2017-Apr-22 23:50N 40°46' E 029°32'0 0.0
2017-Apr-22 23:18N 40°46' E 029°32'0 0.0
2017-Apr-22 23:00N 40°46' E 029°32'0 0.0
2017-Apr-22 22:27N 40°46' E 029°32'0 0.0
2017-Apr-22 21:58N 40°46' E 029°32'0 0.0
2017-Apr-22 21:29N 40°46' E 029°32'0 0.0
2017-Apr-22 20:55N 40°46' E 029°32'0 0.0
2017-Apr-22 20:25N 40°46' E 029°32'0 0.0
2017-Apr-22 19:58N 40°46' E 029°32'0 0.0
2017-Apr-22 19:21N 40°46' E 029°32'0 0.0
2017-Apr-22 18:58N 40°46' E 029°32'0 0.0
2017-Apr-22 18:29N 40°46' E 029°32'0 0.0
2017-Apr-22 17:59N 40°46' E 029°32'0 0.0
2017-Apr-22 17:27N 40°46' E 029°32'1 1.5
2017-Apr-22 17:00N 40°45' E 029°31'4 8.9
2017-Apr-22 16:30N 40°44' E 029°26'4 8.9
2017-Apr-22 16:00N 40°44' E 029°20'612.9
2017-Apr-22 15:30N 40°44' E 029°12'713.4
2017-Apr-22 14:59N 40°45' E 029°02'712.8
2017-Apr-22 14:28N 40°46' E 028°54'  
2017-Apr-19 07:17N 40°57' E 028°56'310.7
2017-Apr-19 07:00N 40°59' E 028°59'  

Dump ship's entire track history